01:16 Rennrad Innsbruck ARZ - Radweg - Kranebitten - Pettnau - Moetz
Ort Innsbruck Datum 13.06.2017 17:03:09
Kategorie Rennrad
Distanz 39,57 Kilometer Steigung 154,0 Meter Gefälle -107,0 Meter
Gesamt Zeit 01:17:02 Aktiv 01:16:07 Pause 00:00:55
Durchs. Tempo 31,2 km/h Tempo max. 82,3 km/h Tempo min. 14,1 km/h
Kalorien 0 Durchs. HF 112 BPM HF max. 135 BPM
Wetter 29 °C Clear Min/Max: 28,5 °C/30,0 °C; Druck: 1014,5 mbar; Rel. Feuchte: 48,4%; Taupunkt: 16,8 °C; Windgeschwindigkeit: 11,8 km/h; Niederschlag: 0,0mm
Ausrüstung Bontrager - RXL Road
Scott - Addict 20
Notiz Innsbruck ARZ - Radweg - Kranebitten - Pettnau - Moetz ... trocken, wechselnder Wind, warm - lockere Fahrt mit Jojo ... garmin connect
Splits
Distanz (km) Gesamt Zeit Split Zeit Split Tempo Split Tempo Höhenprofil (m)
1,00 00:01:57 00:01:57 00:01:58 30,6 -3,60
2,00 00:03:22 00:01:25 00:01:25 42,2 -4,40
3,00 00:05:25 00:02:02 00:02:03 29,4 2,28
4,00 00:07:22 00:01:57 00:01:57 30,7 1,49
5,00 00:09:13 00:01:50 00:01:51 32,5 2,69
6,00 00:11:11 00:01:57 00:01:58 30,6 2,81
7,00 00:13:38 00:02:27 00:02:27 24,4 2,77
8,00 00:16:41 00:03:02 00:03:03 19,7 23,19
9,00 00:18:39 00:01:57 00:01:58 30,6 6,88
10,00 00:20:10 00:01:31 00:01:31 39,5 -24,45
11,00 00:21:49 00:01:38 00:01:39 36,5 -0,80
12,00 00:23:46 00:01:57 00:01:57 30,7 8,44
13,00 00:25:27 00:01:40 00:01:41 35,7 0,21
14,00 00:27:44 00:02:17 00:02:17 26,2 22,77
15,00 00:29:43 00:01:58 00:01:58 30,4 0,95
16,00 00:31:04 00:01:20 00:01:21 44,5 -9,38
17,00 00:32:50 00:01:46 00:01:47 33,7 2,11
18,00 00:34:33 00:01:42 00:01:43 35,0 -13,84
19,00 00:36:21 00:01:48 00:01:48 33,2 7,57
20,00 00:38:05 00:01:43 00:01:44 34,7 1,28
21,00 00:39:45 00:01:39 00:01:40 36,0 0,42
22,00 00:41:35 00:01:49 00:01:50 32,8 0,60
23,00 00:43:25 00:01:49 00:01:50 32,8 1,92
24,00 00:45:14 00:01:49 00:01:50 32,8 5,80
25,00 00:47:20 00:02:05 00:02:06 28,6 -3,46
26,00 00:49:14 00:01:53 00:01:54 31,7 5,74
27,00 00:50:57 00:01:43 00:01:43 34,9 -1,15
28,00 00:52:46 00:01:49 00:01:49 33,0 0,97
29,00 00:54:48 00:02:01 00:02:02 29,6 5,29
30,00 00:56:47 00:01:59 00:01:59 30,2 -1,24
31,00 00:58:28 00:01:40 00:01:41 35,8 1,38
32,00 01:00:08 00:01:40 00:01:41 35,7 2,47
33,00 01:01:59 00:01:50 00:01:50 32,6 7,06
34,00 01:03:42 00:01:43 00:01:43 35,0 1,22
35,00 01:05:30 00:01:48 00:01:48 33,3 -1,61
36,00 01:07:23 00:01:53 00:01:54 31,7 1,59
37,00 01:09:33 00:02:09 00:02:10 27,7 4,02
38,00 01:11:38 00:02:04 00:02:05 28,8 0,03
39,00 01:13:44 00:02:06 00:02:06 28,6 -0,82
39,94 01:16:07 00:02:22 00:02:31 23,9 12,19